| time (UTC) | temp C | wind direction | speed KPH | gust KPH | rain 1hr cm | rain 24hr cm | rain mn cm | humidity % | barometer mb |
| 20260504130737 | 5 | 79 | 1.6 | 4.8 | 0.00 | 0.00 | 0.00 | 82 | 1015.2 |
| 20260504130232 | 4 | 89 | 1.6 | 3.2 | 0.00 | 0.00 | 0.00 | 82 | 1015.0 |
| 20260504120156 | 5 | 61 | 3.2 | 6.4 | 0.00 | 0.00 | 0.00 | 77 | 1014.7 |
| 20260504110624 | 5 | 89 | 4.8 | 4.8 | 0.00 | 0.00 | 0.00 | 76 | 1014.8 |
| 20260504110120 | 6 | 84 | 3.2 | 4.8 | 0.00 | 0.00 | 0.00 | 75 | 1014.9 |
| 20260504100545 | 6 | 68 | 3.2 | 4.8 | 0.00 | 0.00 | 0.00 | 72 | 1014.5 |
| 20260504081939 | 8 | 20 | 1.6 | 3.2 | 0.00 | 0.00 | 0.00 | 66 | 1014.0 |
| 20260504081436 | 8 | 30 | 3.2 | 4.8 | 0.00 | 0.00 | 0.00 | 64 | 1013.8 |
| 20260504080932 | 8 | 66 | 3.2 | 4.8 | 0.00 | 0.00 | 0.00 | 63 | 1013.9 |
| 20260504080429 | 8 | 83 | 3.2 | 4.8 | 0.00 | 0.00 | 0.00 | 64 | 1013.8 |
| 20260504070356 | 10 | 9 | 1.6 | 3.2 | 0.00 | 0.00 | 0.00 | 57 | 1013.8 |
| 20260504050738 | 15 | 141 | 0.0 | 1.6 | 0.00 | 0.00 | 0.00 | 43 | 1013.2 |
| 20260504050235 | 15 | 64 | 3.2 | 4.8 | 0.00 | 0.00 | 0.00 | 42 | 1012.9 |
| 20260504045732 | 16 | 24 | 1.6 | 3.2 | 0.00 | 0.00 | 0.00 | 39 | 1012.9 |
| 20260504045227 | 16 | 134 | 3.2 | 4.8 | 0.00 | 0.00 | 0.00 | 38 | 1013.0 |
| 20260504044725 | 16 | 121 | 0.0 | 4.8 | 0.00 | 0.00 | 0.00 | 38 | 1013.1 |
| 20260504044223 | 16 | 49 | 0.0 | 4.8 | 0.00 | 0.00 | 0.00 | 36 | 1012.8 |
| 20260504043720 | 17 | 58 | 0.0 | 3.2 | 0.00 | 0.00 | 0.00 | 36 | 1012.8 |
| 20260504043216 | 17 | 355 | 3.2 | 6.4 | 0.00 | 0.00 | 0.00 | 37 | 1012.8 |
| 20260504042714 | 17 | 147 | 1.6 | 3.2 | 0.00 | 0.00 | 0.00 | 35 | 1012.8 |
| 20260504042210 | 17 | 30 | 3.2 | 4.8 | 0.00 | 0.00 | 0.00 | 35 | 1012.8 |
| 20260504041706 | 17 | 117 | 0.0 | 1.6 | 0.00 | 0.00 | 0.00 | 35 | 1012.8 |
| 20260504041202 | 18 | 45 | 3.2 | 3.2 | 0.00 | 0.00 | 0.00 | 33 | 1012.5 |
| 20260504040659 | 19 | 88 | 3.2 | 4.8 | 0.00 | 0.00 | 0.00 | 32 | 1012.5 |
| 20260504040156 | 20 | 327 | 1.6 | 3.2 | 0.00 | 0.00 | 0.00 | 30 | 1012.5 |
| 20260504035652 | 20 | 50 | 0.0 | 3.2 | 0.00 | 0.00 | 0.00 | 29 | 1012.2 |
| 20260504035150 | 20 | 112 | 3.2 | 3.2 | 0.00 | 0.00 | 0.00 | 27 | 1012.2 |
| 20260504034647 | 21 | 62 | 0.0 | 1.6 | 0.00 | 0.00 | 0.00 | 28 | 1012.5 |
| 20260504034144 | 22 | 162 | 0.0 | 6.4 | 0.00 | 0.00 | 0.00 | 24 | 1012.1 |
| 20260504033642 | 21 | 62 | 0.0 | 1.6 | 0.00 | 0.00 | 0.00 | 26 | 1011.9 |
| 20260504033139 | 22 | 222 | 1.6 | 3.2 | 0.00 | 0.00 | 0.00 | 25 | 1012.0 |
| 20260504032635 | 22 | 331 | 0.0 | 6.4 | 0.00 | 0.00 | 0.00 | 24 | 1011.9 |
| 20260504032133 | 22 | 16 | 1.6 | 6.4 | 0.00 | 0.00 | 0.00 | 24 | 1011.8 |
| 20260504031630 | 22 | 348 | 3.2 | 8.0 | 0.00 | 0.00 | 0.00 | 25 | 1011.7 |
| 20260504031126 | 23 | 352 | 3.2 | 4.8 | 0.00 | 0.00 | 0.00 | 24 | 1011.6 |
| 20260504030623 | 23 | 342 | 1.6 | 9.7 | 0.00 | 0.00 | 0.00 | 23 | 1011.7 |
| 20260504030120 | 23 | 354 | 0.0 | 6.4 | 0.00 | 0.00 | 0.00 | 23 | 1011.8 |
| 20260504025617 | 24 | 7 | 3.2 | 11.3 | 0.00 | 0.00 | 0.00 | 22 | 1011.6 |
| 20260504025113 | 25 | 19 | 4.8 | 6.4 | 0.00 | 0.00 | 0.00 | 22 | 1011.5 |
| 20260504024611 | 25 | 13 | 3.2 | 8.0 | 0.00 | 0.00 | 0.00 | 22 | 1011.6 |
| 20260504024107 | 25 | 27 | 3.2 | 8.0 | 0.00 | 0.00 | 0.00 | 22 | 1011.8 |
| 20260504023604 | 25 | 15 | 6.4 | 11.3 | 0.00 | 0.00 | 0.00 | 22 | 1011.8 |
| 20260504023100 | 26 | 24 | 6.4 | 8.0 | 0.00 | 0.00 | 0.00 | 23 | 1011.6 |
| 20260504022556 | 26 | 14 | 1.6 | 4.8 | 0.00 | 0.00 | 0.00 | 22 | 1011.4 |
| 20260504022052 | 26 | 2 | 3.2 | 4.8 | 0.00 | 0.00 | 0.00 | 22 | 1011.6 |
| 20260504021550 | 26 | 4 | 3.2 | 9.7 | 0.00 | 0.00 | 0.00 | 22 | 1011.7 |
| 20260504021047 | 26 | 357 | 1.6 | 11.3 | 0.00 | 0.00 | 0.00 | 21 | 1011.6 |
| 20260504020544 | 26 | 25 | 0.0 | 4.8 | 0.00 | 0.00 | 0.00 | 22 | 1011.7 |
| 20260504020040 | 27 | 27 | 3.2 | 4.8 | 0.00 | 0.00 | 0.00 | 22 | 1011.7 |
| 20260504015537 | 27 | 17 | 1.6 | 6.4 | 0.00 | 0.00 | 0.00 | 22 | 1011.8 |
| 20260504015032 | 26 | 26 | 3.2 | 4.8 | 0.00 | 0.00 | 0.00 | 22 | 1011.9 |
| 20260504014529 | 26 | 350 | 3.2 | 6.4 | 0.00 | 0.00 | 0.00 | 23 | 1011.7 |
| 20260504014026 | 26 | 347 | 3.2 | 9.7 | 0.00 | 0.00 | 0.00 | 22 | 1011.7 |
| 20260504013524 | 26 | 334 | 3.2 | 11.3 | 0.00 | 0.00 | 0.00 | 22 | 1011.7 |
| 20260504013021 | 27 | 314 | 1.6 | 8.0 | 0.00 | 0.00 | 0.00 | 23 | 1011.7 |
| 20260504012518 | 27 | 327 | 4.8 | 6.4 | 0.00 | 0.00 | 0.00 | 22 | 1011.8 |
| 20260504012016 | 27 | 356 | 1.6 | 8.0 | 0.00 | 0.00 | 0.00 | 22 | 1011.6 |
| 20260504011512 | 27 | 10 | 6.4 | 11.3 | 0.00 | 0.00 | 0.00 | 21 | 1011.9 |
| 20260504011008 | 27 | 339 | 8.0 | 14.5 | 0.00 | 0.00 | 0.00 | 21 | 1011.7 |
| 20260504010504 | 28 | 83 | 4.8 | 12.9 | 0.00 | 0.00 | 0.00 | 22 | 1011.8 |
| 20260504010000 | 28 | 217 | 0.0 | 8.0 | 0.00 | 0.00 | 0.00 | 22 | 1011.8 |
| 20260504005457 | 27 | 7 | 1.6 | 8.0 | 0.00 | 0.00 | 0.00 | 21 | 1012.0 |
| 20260504004954 | 28 | 339 | 8.0 | 11.3 | 0.00 | 0.00 | 0.00 | 20 | 1012.0 |
| 20260504004452 | 28 | 342 | 4.8 | 11.3 | 0.00 | 0.00 | 0.00 | 21 | 1012.2 |
| 20260504003949 | 28 | 340 | 4.8 | 14.5 | 0.00 | 0.00 | 0.00 | 21 | 1012.1 |
| 20260504003445 | 27 | 354 | 3.2 | 12.9 | 0.00 | 0.00 | 0.00 | 21 | 1012.1 |
| 20260504002942 | 27 | 320 | 9.7 | 19.3 | 0.00 | 0.00 | 0.00 | 21 | 1012.4 |
| 20260504002439 | 27 | 23 | 6.4 | 14.5 | 0.00 | 0.00 | 0.00 | 20 | 1012.1 |
| 20260504001936 | 27 | 315 | 6.4 | 12.9 | 0.00 | 0.00 | 0.00 | 20 | 1012.2 |
| 20260504001434 | 27 | 316 | 6.4 | 16.1 | 0.00 | 0.00 | 0.00 | 21 | 1012.2 |
| 20260504000930 | 28 | 352 | 8.0 | 16.1 | 0.00 | 0.00 | 0.00 | 21 | 1012.6 |
| 20260504000427 | 28 | 316 | 1.6 | 8.0 | 0.00 | 0.00 | 0.00 | 21 | 1012.6 |
| 20260503235924 | 28 | 332 | 6.4 | 11.3 | 0.00 | 0.00 | 0.00 | 21 | 1012.5 |
| 20260503235422 | 28 | 279 | 6.4 | 16.1 | 0.00 | 0.00 | 0.00 | 20 | 1012.5 |
| 20260503234920 | 28 | 308 | 11.3 | 16.1 | 0.00 | 0.00 | 0.00 | 21 | 1012.7 |
| 20260503234417 | 28 | 286 | 3.2 | 14.5 | 0.00 | 0.00 | 0.00 | 22 | 1012.7 |
| 20260503233915 | 28 | 284 | 4.8 | 12.9 | 0.00 | 0.00 | 0.00 | 20 | 1012.5 |
| 20260503233411 | 28 | 309 | 11.3 | 20.9 | 0.00 | 0.00 | 0.00 | 21 | 1012.5 |
| 20260503232907 | 29 | 287 | 3.2 | 6.4 | 0.00 | 0.00 | 0.00 | 20 | 1012.8 |
| 20260503232405 | 28 | 338 | 4.8 | 8.0 | 0.00 | 0.00 | 0.00 | 20 | 1012.7 |
| 20260503231903 | 28 | 231 | 3.2 | 14.5 | 0.00 | 0.00 | 0.00 | 20 | 1012.9 |
| 20260503231400 | 28 | 36 | 1.6 | 9.7 | 0.00 | 0.00 | 0.00 | 22 | 1012.9 |
| 20260503230855 | 28 | 12 | 11.3 | 19.3 | 0.00 | 0.00 | 0.00 | 21 | 1012.9 |
| 20260503230352 | 28 | 305 | 1.6 | 6.4 | 0.00 | 0.00 | 0.00 | 21 | 1012.9 |
| 20260503225850 | 28 | 326 | 3.2 | 17.7 | 0.00 | 0.00 | 0.00 | 21 | 1012.9 |
| 20260503225346 | 28 | 156 | 3.2 | 8.0 | 0.00 | 0.00 | 0.00 | 20 | 1012.9 |
| 20260503224842 | 28 | 309 | 0.0 | 9.7 | 0.00 | 0.00 | 0.00 | 21 | 1013.0 |
| 20260503224340 | 28 | 293 | 3.2 | 8.0 | 0.00 | 0.00 | 0.00 | 21 | 1013.2 |
| 20260503223837 | 27 | 302 | 4.8 | 9.7 | 0.00 | 0.00 | 0.00 | 22 | 1013.1 |
| 20260503223335 | 27 | 355 | 3.2 | 14.5 | 0.00 | 0.00 | 0.00 | 21 | 1013.3 |
| 20260503222830 | 28 | 273 | 12.9 | 14.5 | 0.00 | 0.00 | 0.00 | 21 | 1013.4 |
| 20260503222329 | 28 | 224 | 9.7 | 12.9 | 0.00 | 0.00 | 0.00 | 20 | 1013.3 |
| 20260503221826 | 28 | 261 | 8.0 | 12.9 | 0.00 | 0.00 | 0.00 | 21 | 1013.4 |
| 20260503221325 | 27 | 263 | 6.4 | 14.5 | 0.00 | 0.00 | 0.00 | 20 | 1013.5 |
| 20260503220821 | 28 | 232 | 8.0 | 12.9 | 0.00 | 0.00 | 0.00 | 20 | 1013.6 |
| 20260503220318 | 27 | 235 | 8.0 | 16.1 | 0.00 | 0.00 | 0.00 | 21 | 1013.6 |
| 20260503215814 | 27 | 324 | 3.2 | 8.0 | 0.00 | 0.00 | 0.00 | 22 | 1013.8 |
| 20260503215312 | 27 | 7 | 3.2 | 8.0 | 0.00 | 0.00 | 0.00 | 22 | 1013.8 |
| 20260503214810 | 27 | 120 | 4.8 | 27.4 | 0.00 | 0.00 | 0.00 | 23 | 1013.4 |
| 20260503214306 | 28 | 284 | 8.0 | 16.1 | 0.00 | 0.00 | 0.00 | 22 | 1013.5 |
| 20260503213804 | 27 | 254 | 4.8 | 17.7 | 0.00 | 0.00 | 0.00 | 22 | 1013.6 |
| 20260503213302 | 27 | 224 | 6.4 | 14.5 | 0.00 | 0.00 | 0.00 | 21 | 1013.8 |
| 20260503212758 | 27 | 192 | 3.2 | 14.5 | 0.00 | 0.00 | 0.00 | 21 | 1013.9 |
| 20260503212256 | 27 | 291 | 4.8 | 20.9 | 0.00 | 0.00 | 0.00 | 23 | 1014.3 |
| 20260503211753 | 27 | 311 | 4.8 | 12.9 | 0.00 | 0.00 | 0.00 | 23 | 1014.0 |
| 20260503211250 | 27 | 218 | 4.8 | 16.1 | 0.00 | 0.00 | 0.00 | 22 | 1014.2 |
| 20260503210744 | 26 | 294 | 4.8 | 17.7 | 0.00 | 0.00 | 0.00 | 22 | 1014.3 |
| 20260503210242 | 27 | 250 | 4.8 | 16.1 | 0.00 | 0.00 | 0.00 | 22 | 1014.3 |
| 20260503205737 | 27 | 179 | 1.6 | 6.4 | 0.00 | 0.00 | 0.00 | 22 | 1014.4 |
| 20260503205234 | 26 | 160 | 1.6 | 9.7 | 0.00 | 0.00 | 0.00 | 22 | 1014.6 |
| 20260503204730 | 26 | 258 | 3.2 | 17.7 | 0.00 | 0.00 | 0.00 | 22 | 1014.7 |
| 20260503204228 | 26 | 245 | 9.7 | 11.3 | 0.00 | 0.00 | 0.00 | 22 | 1014.9 |
| 20260503203725 | 26 | 248 | 9.7 | 17.7 | 0.00 | 0.00 | 0.00 | 22 | 1014.9 |
| 20260503203222 | 26 | 321 | 6.4 | 12.9 | 0.00 | 0.00 | 0.00 | 23 | 1014.8 |
| 20260503202719 | 26 | 207 | 3.2 | 11.3 | 0.00 | 0.00 | 0.00 | 22 | 1014.9 |
| 20260503202217 | 26 | 306 | 8.0 | 12.9 | 0.00 | 0.00 | 0.00 | 24 | 1015.0 |
| 20260503201715 | 26 | 303 | 6.4 | 12.9 | 0.00 | 0.00 | 0.00 | 24 | 1015.1 |
| 20260503201212 | 26 | 224 | 6.4 | 20.9 | 0.00 | 0.00 | 0.00 | 22 | 1015.1 |
| 20260503200708 | 26 | 237 | 3.2 | 6.4 | 0.00 | 0.00 | 0.00 | 22 | 1015.1 |
| 20260503200205 | 26 | 203 | 3.2 | 9.7 | 0.00 | 0.00 | 0.00 | 22 | 1015.0 |
| 20260503195702 | 26 | 175 | 4.8 | 8.0 | 0.00 | 0.00 | 0.00 | 25 | 1015.5 |
| 20260503195159 | 26 | 176 | 3.2 | 9.7 | 0.00 | 0.00 | 0.00 | 27 | 1015.5 |
| 20260503194655 | 25 | 117 | 0.0 | 4.8 | 0.00 | 0.00 | 0.00 | 27 | 1015.5 |
| 20260503194151 | 25 | 167 | 4.8 | 9.7 | 0.00 | 0.00 | 0.00 | 26 | 1015.6 |
| 20260503193648 | 25 | 180 | 4.8 | 6.4 | 0.00 | 0.00 | 0.00 | 25 | 1015.8 |
| 20260503193143 | 25 | 321 | 4.8 | 11.3 | 0.00 | 0.00 | 0.00 | 27 | 1015.5 |
| 20260503192639 | 25 | 103 | 3.2 | 6.4 | 0.00 | 0.00 | 0.00 | 28 | 1015.8 |
| 20260503192135 | 23 | 227 | 1.6 | 4.8 | 0.00 | 0.00 | 0.00 | 30 | 1016.0 |
| 20260503191632 | 23 | 149 | 4.8 | 8.0 | 0.00 | 0.00 | 0.00 | 29 | 1016.1 |
| 20260503191129 | 23 | 125 | 4.8 | 8.0 | 0.00 | 0.00 | 0.00 | 29 | 1016.3 |
| 20260503190626 | 22 | 99 | 4.8 | 8.0 | 0.00 | 0.00 | 0.00 | 30 | 1016.4 |
| 20260503190123 | 22 | 160 | 4.8 | 9.7 | 0.00 | 0.00 | 0.00 | 31 | 1016.3 |
| 20260503185620 | 22 | 102 | 3.2 | 6.4 | 0.00 | 0.00 | 0.00 | 30 | 1016.7 |
| 20260503185115 | 22 | 4 | 4.8 | 4.8 | 0.00 | 0.00 | 0.00 | 32 | 1016.8 |
| 20260503184610 | 22 | 84 | 4.8 | 6.4 | 0.00 | 0.00 | 0.00 | 31 | 1016.8 |
| 20260503184107 | 22 | 124 | 6.4 | 9.7 | 0.00 | 0.00 | 0.00 | 31 | 1016.9 |
| 20260503183603 | 21 | 78 | 1.6 | 8.0 | 0.00 | 0.00 | 0.00 | 32 | 1017.0 |
| 20260503183101 | 21 | 256 | 0.0 | 6.4 | 0.00 | 0.00 | 0.00 | 34 | 1017.3 |
| 20260503182559 | 21 | 179 | 1.6 | 4.8 | 0.00 | 0.00 | 0.00 | 33 | 1017.2 |
| 20260503182057 | 21 | 240 | 0.0 | 8.0 | 0.00 | 0.00 | 0.00 | 34 | 1017.5 |
| 20260503181553 | 20 | 101 | 3.2 | 4.8 | 0.00 | 0.00 | 0.00 | 34 | 1017.5 |
| 20260503181050 | 20 | 130 | 3.2 | 8.0 | 0.00 | 0.00 | 0.00 | 37 | 1017.5 |
| 20260503180547 | 20 | 127 | 3.2 | 8.0 | 0.00 | 0.00 | 0.00 | 36 | 1017.6 |
| 20260503180044 | 20 | 344 | 3.2 | 6.4 | 0.00 | 0.00 | 0.00 | 35 | 1017.6 |
| 20260503175541 | 18 | 255 | 1.6 | 6.4 | 0.00 | 0.00 | 0.00 | 36 | 1017.8 |
| 20260503175038 | 18 | 123 | 3.2 | 6.4 | 0.00 | 0.00 | 0.00 | 39 | 1018.1 |
| 20260503174535 | 18 | 126 | 3.2 | 9.7 | 0.00 | 0.00 | 0.00 | 39 | 1017.9 |
| 20260503174031 | 18 | 98 | 4.8 | 8.0 | 0.00 | 0.00 | 0.00 | 37 | 1018.1 |
| 20260503173521 | 17 | 155 | 0.0 | 8.0 | 0.00 | 0.00 | 0.00 | 38 | 1018.3 |
| 20260503173018 | 17 | 121 | 4.8 | 9.7 | 0.00 | 0.00 | 0.00 | 38 | 1018.2 |
| 20260503172516 | 17 | 212 | 0.0 | 6.4 | 0.00 | 0.00 | 0.00 | 37 | 1018.2 |
| 20260503172012 | 18 | 1 | 1.6 | 6.4 | 0.00 | 0.00 | 0.00 | 39 | 1018.3 |
| 20260503171509 | 17 | 358 | 1.6 | 4.8 | 0.00 | 0.00 | 0.00 | 40 | 1018.2 |
| 20260503171007 | 16 | 323 | 1.6 | 4.8 | 0.00 | 0.00 | 0.00 | 41 | 1018.6 |
| 20260503170503 | 16 | 218 | 3.2 | 4.8 | 0.00 | 0.00 | 0.00 | 41 | 1018.5 |
| 20260503150855 | 11 | 37 | 4.8 | 8.0 | 0.00 | 0.00 | 0.00 | 56 | 1020.2 |
| 20260503150351 | 11 | 2 | 3.2 | 4.8 | 0.00 | 0.00 | 0.00 | 55 | 1020.2 |